ENOV

Ørsta-Volda , Hovden Airport

Ørsta, Norway
METAR ENOV 210520Z VRB02KT 9999 FEW007 SCT040 09/08 Q1020 RMK WIND 2175FT 22003KT
Observed Flight Rules
Aug-21 @ 05:20 UTC (9 hours ago) Visual Flight Rules
Wind Visibility Clouds
Variable at 2 knots 10,000+ meters
  • Few at 700' AGL
  • Scattered at 4,000' AGL
Temperatures Readings
Current 9°C / 48°F
Dewpoint 8°C / 46°F
Humidity 94%
Altimeter 30.12" Hg
Pressure 1020 hPa
Elevation 74
METAR ENOV 210520Z VRB02KT 9999 FEW007 SCT040 09/08 Q1020 RMK WIND 2175FT 22003KT
Observed Flight Rules
Aug-21 @ 05:20 UTC
(9 hours ago)
VFR
Wind Visibility
Variable at 2 knots 10,000+ meters
Clouds
  • Few at 700' AGL
  • Scattered at 4,000' AGL
Temperature Dewpoint
9°C / 48°F 8°C / 46°F
Humidity Altimeter Pressure
94% 30.12" Hg 1020 hPa